sensor_id;sensor_type;location;lat;lon;timestamp;P1;durP1;ratioP1;P2;durP2;ratioP2
9643;SDS011;4860;50.900;4.720;2023-11-22T00:00:57;0.40;;;0.40;;
9643;SDS011;4860;50.900;4.720;2023-11-22T00:03:23;0.40;;;0.40;;
9643;SDS011;4860;50.900;4.720;2023-11-22T00:05:50;0.30;;;0.30;;
9643;SDS011;4860;50.900;4.720;2023-11-22T00:08:16;0.40;;;0.40;;
9643;SDS011;4860;50.900;4.720;2023-11-22T00:10:42;0.30;;;0.30;;
9643;SDS011;4860;50.900;4.720;2023-11-22T00:13:09;0.30;;;0.30;;
9643;SDS011;4860;50.900;4.720;2023-11-22T00:15:36;0.30;;;0.30;;
9643;SDS011;4860;50.900;4.720;2023-11-22T00:18:02;0.30;;;0.30;;
9643;SDS011;4860;50.900;4.720;2023-11-22T00:20:29;0.30;;;0.30;;
9643;SDS011;4860;50.900;4.720;2023-11-22T00:22:55;0.30;;;0.30;;
9643;SDS011;4860;50.900;4.720;2023-11-22T00:25:22;0.30;;;0.30;;
9643;SDS011;4860;50.900;4.720;2023-11-22T00:27:48;0.27;;;0.27;;
9643;SDS011;4860;50.900;4.720;2023-11-22T00:30:14;0.40;;;0.40;;
9643;SDS011;4860;50.900;4.720;2023-11-22T00:32:41;0.33;;;0.33;;
9643;SDS011;4860;50.900;4.720;2023-11-22T00:35:07;0.30;;;0.30;;
9643;SDS011;4860;50.900;4.720;2023-11-22T00:37:33;0.30;;;0.30;;
9643;SDS011;4860;50.900;4.720;2023-11-22T00:40:00;0.40;;;0.40;;
9643;SDS011;4860;50.900;4.720;2023-11-22T00:42:35;0.40;;;0.40;;
9643;SDS011;4860;50.900;4.720;2023-11-22T00:45:02;0.30;;;0.30;;
9643;SDS011;4860;50.900;4.720;2023-11-22T00:47:31;0.30;;;0.30;;
9643;SDS011;4860;50.900;4.720;2023-11-22T00:49:57;0.25;;;0.25;;
9643;SDS011;4860;50.900;4.720;2023-11-22T00:52:24;0.30;;;0.30;;
9643;SDS011;4860;50.900;4.720;2023-11-22T00:54:50;0.30;;;0.30;;
9643;SDS011;4860;50.900;4.720;2023-11-22T00:57:16;0.30;;;0.30;;
9643;SDS011;4860;50.900;4.720;2023-11-22T00:59:42;0.30;;;0.30;;
9643;SDS011;4860;50.900;4.720;2023-11-22T01:02:08;0.37;;;0.37;;
9643;SDS011;4860;50.900;4.720;2023-11-22T01:04:34;0.30;;;0.30;;
9643;SDS011;4860;50.900;4.720;2023-11-22T01:07:05;0.40;;;0.40;;
9643;SDS011;4860;50.900;4.720;2023-11-22T01:09:31;0.30;;;0.30;;
9643;SDS011;4860;50.900;4.720;2023-11-22T01:11:58;0.30;;;0.30;;
9643;SDS011;4860;50.900;4.720;2023-11-22T01:14:24;0.30;;;0.30;;
9643;SDS011;4860;50.900;4.720;2023-11-22T01:16:54;0.30;;;0.30;;
9643;SDS011;4860;50.900;4.720;2023-11-22T01:19:21;0.30;;;0.30;;
9643;SDS011;4860;50.900;4.720;2023-11-22T01:21:47;0.40;;;0.40;;
9643;SDS011;4860;50.900;4.720;2023-11-22T01:24:13;0.30;;;0.30;;
9643;SDS011;4860;50.900;4.720;2023-11-22T01:26:40;0.30;;;0.30;;
9643;SDS011;4860;50.900;4.720;2023-11-22T01:29:06;0.30;;;0.30;;
9643;SDS011;4860;50.900;4.720;2023-11-22T01:31:32;0.25;;;0.25;;
9643;SDS011;4860;50.900;4.720;2023-11-22T01:33:58;0.30;;;0.30;;
9643;SDS011;4860;50.900;4.720;2023-11-22T01:36:25;0.30;;;0.30;;
9643;SDS011;4860;50.900;4.720;2023-11-22T01:38:51;0.30;;;0.30;;
9643;SDS011;4860;50.900;4.720;2023-11-22T01:41:17;0.30;;;0.30;;
9643;SDS011;4860;50.900;4.720;2023-11-22T01:43:44;0.30;;;0.30;;
9643;SDS011;4860;50.900;4.720;2023-11-22T01:46:15;0.40;;;0.40;;
9643;SDS011;4860;50.900;4.720;2023-11-22T01:48:48;0.40;;;0.40;;
9643;SDS011;4860;50.900;4.720;2023-11-22T01:51:14;0.27;;;0.27;;
9643;SDS011;4860;50.900;4.720;2023-11-22T01:53:40;0.33;;;0.33;;
9643;SDS011;4860;50.900;4.720;2023-11-22T01:56:07;0.30;;;0.30;;
9643;SDS011;4860;50.900;4.720;2023-11-22T01:58:34;0.30;;;0.30;;
9643;SDS011;4860;50.900;4.720;2023-11-22T02:01:01;0.30;;;0.30;;
9643;SDS011;4860;50.900;4.720;2023-11-22T02:03:27;0.40;;;0.40;;
9643;SDS011;4860;50.900;4.720;2023-11-22T02:05:55;0.30;;;0.30;;
9643;SDS011;4860;50.900;4.720;2023-11-22T02:08:21;0.30;;;0.30;;
9643;SDS011;4860;50.900;4.720;2023-11-22T02:10:56;0.30;;;0.30;;
9643;SDS011;4860;50.900;4.720;2023-11-22T02:13:23;0.30;;;0.30;;
9643;SDS011;4860;50.900;4.720;2023-11-22T02:15:49;0.30;;;0.30;;
9643;SDS011;4860;50.900;4.720;2023-11-22T02:18:15;0.30;;;0.30;;
9643;SDS011;4860;50.900;4.720;2023-11-22T02:20:42;0.30;;;0.30;;
9643;SDS011;4860;50.900;4.720;2023-11-22T02:23:11;0.30;;;0.30;;
9643;SDS011;4860;50.900;4.720;2023-11-22T02:25:37;0.30;;;0.30;;
9643;SDS011;4860;50.900;4.720;2023-11-22T02:28:04;0.30;;;0.30;;
9643;SDS011;4860;50.900;4.720;2023-11-22T02:30:30;0.30;;;0.30;;
9643;SDS011;4860;50.900;4.720;2023-11-22T02:32:56;0.30;;;0.30;;
9643;SDS011;4860;50.900;4.720;2023-11-22T02:35:22;0.30;;;0.30;;
9643;SDS011;4860;50.900;4.720;2023-11-22T02:37:49;0.20;;;0.20;;
9643;SDS011;4860;50.900;4.720;2023-11-22T02:42:41;0.30;;;0.30;;
9643;SDS011;4860;50.900;4.720;2023-11-22T02:45:08;0.30;;;0.30;;
9643;SDS011;4860;50.900;4.720;2023-11-22T02:47:34;0.40;;;0.40;;
9643;SDS011;4860;50.900;4.720;2023-11-22T02:50:01;0.30;;;0.30;;
9643;SDS011;4860;50.900;4.720;2023-11-22T02:52:27;0.30;;;0.30;;
9643;SDS011;4860;50.900;4.720;2023-11-22T02:54:54;0.33;;;0.33;;
9643;SDS011;4860;50.900;4.720;2023-11-22T02:57:20;0.40;;;0.40;;
9643;SDS011;4860;50.900;4.720;2023-11-22T02:59:46;0.30;;;0.30;;
9643;SDS011;4860;50.900;4.720;2023-11-22T03:02:12;0.30;;;0.30;;
9643;SDS011;4860;50.900;4.720;2023-11-22T03:04:40;0.30;;;0.30;;
9643;SDS011;4860;50.900;4.720;2023-11-22T03:07:06;0.30;;;0.30;;
9643;SDS011;4860;50.900;4.720;2023-11-22T03:09:32;0.30;;;0.30;;
9643;SDS011;4860;50.900;4.720;2023-11-22T03:11:58;0.30;;;0.30;;
9643;SDS011;4860;50.900;4.720;2023-11-22T03:14:25;0.30;;;0.30;;
9643;SDS011;4860;50.900;4.720;2023-11-22T03:16:51;0.28;;;0.28;;
9643;SDS011;4860;50.900;4.720;2023-11-22T03:19:17;0.30;;;0.30;;
9643;SDS011;4860;50.900;4.720;2023-11-22T03:21:44;0.38;;;0.38;;
9643;SDS011;4860;50.900;4.720;2023-11-22T03:24:11;0.30;;;0.30;;
9643;SDS011;4860;50.900;4.720;2023-11-22T03:26:37;0.30;;;0.30;;
9643;SDS011;4860;50.900;4.720;2023-11-22T03:29:04;0.30;;;0.30;;
9643;SDS011;4860;50.900;4.720;2023-11-22T03:31:30;0.30;;;0.30;;
9643;SDS011;4860;50.900;4.720;2023-11-22T03:33:56;0.30;;;0.30;;
9643;SDS011;4860;50.900;4.720;2023-11-22T03:36:23;0.40;;;0.40;;
9643;SDS011;4860;50.900;4.720;2023-11-22T03:38:50;0.30;;;0.30;;
9643;SDS011;4860;50.900;4.720;2023-11-22T03:41:16;0.30;;;0.30;;
9643;SDS011;4860;50.900;4.720;2023-11-22T03:43:43;0.37;;;0.37;;
9643;SDS011;4860;50.900;4.720;2023-11-22T03:46:09;0.30;;;0.30;;
9643;SDS011;4860;50.900;4.720;2023-11-22T03:48:36;0.30;;;0.30;;
9643;SDS011;4860;50.900;4.720;2023-11-22T03:51:02;0.40;;;0.40;;
9643;SDS011;4860;50.900;4.720;2023-11-22T03:53:29;0.30;;;0.30;;
9643;SDS011;4860;50.900;4.720;2023-11-22T03:55:55;0.40;;;0.40;;
9643;SDS011;4860;50.900;4.720;2023-11-22T03:58:21;0.40;;;0.40;;
9643;SDS011;4860;50.900;4.720;2023-11-22T04:00:47;0.30;;;0.30;;
9643;SDS011;4860;50.900;4.720;2023-11-22T04:03:13;0.33;;;0.33;;
9643;SDS011;4860;50.900;4.720;2023-11-22T04:05:39;0.30;;;0.30;;
9643;SDS011;4860;50.900;4.720;2023-11-22T04:08:07;0.40;;;0.40;;
9643;SDS011;4860;50.900;4.720;2023-11-22T04:10:33;0.50;;;0.50;;
9643;SDS011;4860;50.900;4.720;2023-11-22T04:13:00;0.30;;;0.30;;
9643;SDS011;4860;50.900;4.720;2023-11-22T04:15:26;0.40;;;0.40;;
9643;SDS011;4860;50.900;4.720;2023-11-22T04:17:52;0.40;;;0.40;;
9643;SDS011;4860;50.900;4.720;2023-11-22T04:20:21;0.47;;;0.47;;
9643;SDS011;4860;50.900;4.720;2023-11-22T04:22:47;0.30;;;0.30;;
9643;SDS011;4860;50.900;4.720;2023-11-22T04:25:14;0.30;;;0.30;;
9643;SDS011;4860;50.900;4.720;2023-11-22T04:27:40;0.40;;;0.40;;
9643;SDS011;4860;50.900;4.720;2023-11-22T04:30:07;0.47;;;0.47;;
9643;SDS011;4860;50.900;4.720;2023-11-22T04:32:38;0.33;;;0.33;;
9643;SDS011;4860;50.900;4.720;2023-11-22T04:35:05;0.30;;;0.30;;
9643;SDS011;4860;50.900;4.720;2023-11-22T04:37:31;0.40;;;0.40;;
9643;SDS011;4860;50.900;4.720;2023-11-22T04:39:58;0.40;;;0.40;;
9643;SDS011;4860;50.900;4.720;2023-11-22T04:42:24;0.43;;;0.43;;
9643;SDS011;4860;50.900;4.720;2023-11-22T04:44:53;0.30;;;0.30;;
9643;SDS011;4860;50.900;4.720;2023-11-22T04:47:19;0.40;;;0.40;;
9643;SDS011;4860;50.900;4.720;2023-11-22T04:49:48;0.40;;;0.40;;
9643;SDS011;4860;50.900;4.720;2023-11-22T04:52:14;0.40;;;0.40;;
9643;SDS011;4860;50.900;4.720;2023-11-22T04:54:40;0.40;;;0.40;;
9643;SDS011;4860;50.900;4.720;2023-11-22T04:57:07;0.50;;;0.50;;
9643;SDS011;4860;50.900;4.720;2023-11-22T04:59:33;0.40;;;0.40;;
9643;SDS011;4860;50.900;4.720;2023-11-22T05:01:59;0.30;;;0.30;;
9643;SDS011;4860;50.900;4.720;2023-11-22T05:04:25;0.40;;;0.40;;
9643;SDS011;4860;50.900;4.720;2023-11-22T05:06:53;0.40;;;0.40;;
9643;SDS011;4860;50.900;4.720;2023-11-22T05:09:22;0.30;;;0.30;;
9643;SDS011;4860;50.900;4.720;2023-11-22T05:11:49;0.40;;;0.40;;
9643;SDS011;4860;50.900;4.720;2023-11-22T05:14:15;0.30;;;0.30;;
9643;SDS011;4860;50.900;4.720;2023-11-22T05:16:41;0.30;;;0.30;;
9643;SDS011;4860;50.900;4.720;2023-11-22T05:19:07;0.30;;;0.30;;
9643;SDS011;4860;50.900;4.720;2023-11-22T05:21:33;0.40;;;0.40;;
9643;SDS011;4860;50.900;4.720;2023-11-22T05:23:59;0.30;;;0.30;;
9643;SDS011;4860;50.900;4.720;2023-11-22T05:26:25;0.40;;;0.40;;
9643;SDS011;4860;50.900;4.720;2023-11-22T05:28:52;0.30;;;0.30;;
9643;SDS011;4860;50.900;4.720;2023-11-22T05:31:21;0.40;;;0.40;;
9643;SDS011;4860;50.900;4.720;2023-11-22T05:33:48;0.30;;;0.30;;
9643;SDS011;4860;50.900;4.720;2023-11-22T05:36:14;0.30;;;0.30;;
9643;SDS011;4860;50.900;4.720;2023-11-22T05:38:42;0.30;;;0.30;;
9643;SDS011;4860;50.900;4.720;2023-11-22T05:41:08;0.30;;;0.30;;
9643;SDS011;4860;50.900;4.720;2023-11-22T05:43:34;0.30;;;0.30;;
9643;SDS011;4860;50.900;4.720;2023-11-22T05:46:02;0.30;;;0.30;;
9643;SDS011;4860;50.900;4.720;2023-11-22T05:48:28;0.40;;;0.40;;
9643;SDS011;4860;50.900;4.720;2023-11-22T05:50:55;0.30;;;0.30;;
9643;SDS011;4860;50.900;4.720;2023-11-22T05:53:21;0.30;;;0.30;;
9643;SDS011;4860;50.900;4.720;2023-11-22T05:55:48;0.40;;;0.40;;
9643;SDS011;4860;50.900;4.720;2023-11-22T05:58:15;0.30;;;0.30;;
9643;SDS011;4860;50.900;4.720;2023-11-22T06:00:45;0.40;;;0.40;;
9643;SDS011;4860;50.900;4.720;2023-11-22T06:03:11;0.30;;;0.30;;
9643;SDS011;4860;50.900;4.720;2023-11-22T06:05:38;0.30;;;0.30;;
9643;SDS011;4860;50.900;4.720;2023-11-22T06:08:04;0.30;;;0.30;;
9643;SDS011;4860;50.900;4.720;2023-11-22T06:10:30;0.40;;;0.40;;
9643;SDS011;4860;50.900;4.720;2023-11-22T06:12:56;0.30;;;0.30;;
9643;SDS011;4860;50.900;4.720;2023-11-22T06:15:22;0.40;;;0.40;;
9643;SDS011;4860;50.900;4.720;2023-11-22T06:17:49;0.40;;;0.40;;
9643;SDS011;4860;50.900;4.720;2023-11-22T06:20:15;0.37;;;0.37;;
9643;SDS011;4860;50.900;4.720;2023-11-22T06:22:42;0.30;;;0.30;;
9643;SDS011;4860;50.900;4.720;2023-11-22T06:25:08;0.30;;;0.30;;
9643;SDS011;4860;50.900;4.720;2023-11-22T06:27:35;0.30;;;0.30;;
9643;SDS011;4860;50.900;4.720;2023-11-22T06:30:02;0.30;;;0.30;;
9643;SDS011;4860;50.900;4.720;2023-11-22T06:32:28;0.33;;;0.33;;
9643;SDS011;4860;50.900;4.720;2023-11-22T06:34:54;0.37;;;0.37;;
9643;SDS011;4860;50.900;4.720;2023-11-22T06:37:20;0.30;;;0.30;;
9643;SDS011;4860;50.900;4.720;2023-11-22T06:39:47;0.30;;;0.30;;
9643;SDS011;4860;50.900;4.720;2023-11-22T06:42:13;0.30;;;0.30;;
9643;SDS011;4860;50.900;4.720;2023-11-22T06:44:39;0.30;;;0.30;;
9643;SDS011;4860;50.900;4.720;2023-11-22T06:47:05;0.30;;;0.30;;
9643;SDS011;4860;50.900;4.720;2023-11-22T06:49:35;0.30;;;0.30;;
9643;SDS011;4860;50.900;4.720;2023-11-22T06:52:01;0.40;;;0.40;;
9643;SDS011;4860;50.900;4.720;2023-11-22T06:54:28;0.40;;;0.40;;
9643;SDS011;4860;50.900;4.720;2023-11-22T06:56:54;0.30;;;0.30;;
9643;SDS011;4860;50.900;4.720;2023-11-22T06:59:20;0.30;;;0.30;;
9643;SDS011;4860;50.900;4.720;2023-11-22T07:01:46;0.40;;;0.40;;
9643;SDS011;4860;50.900;4.720;2023-11-22T07:04:12;0.40;;;0.40;;
9643;SDS011;4860;50.900;4.720;2023-11-22T07:06:38;0.30;;;0.30;;
9643;SDS011;4860;50.900;4.720;2023-11-22T07:09:05;0.23;;;0.23;;
9643;SDS011;4860;50.900;4.720;2023-11-22T07:11:34;0.40;;;0.40;;
9643;SDS011;4860;50.900;4.720;2023-11-22T07:14:02;0.30;;;0.30;;
9643;SDS011;4860;50.900;4.720;2023-11-22T07:16:34;0.30;;;0.30;;
9643;SDS011;4860;50.900;4.720;2023-11-22T07:19:01;0.30;;;0.30;;
9643;SDS011;4860;50.900;4.720;2023-11-22T07:21:28;0.30;;;0.30;;
9643;SDS011;4860;50.900;4.720;2023-11-22T07:23:57;0.30;;;0.30;;
9643;SDS011;4860;50.900;4.720;2023-11-22T07:26:27;0.37;;;0.37;;
9643;SDS011;4860;50.900;4.720;2023-11-22T07:28:53;0.30;;;0.30;;
9643;SDS011;4860;50.900;4.720;2023-11-22T07:31:19;0.30;;;0.30;;
9643;SDS011;4860;50.900;4.720;2023-11-22T07:33:46;0.30;;;0.30;;
9643;SDS011;4860;50.900;4.720;2023-11-22T07:36:12;0.30;;;0.30;;
9643;SDS011;4860;50.900;4.720;2023-11-22T07:38:42;0.40;;;0.40;;
9643;SDS011;4860;50.900;4.720;2023-11-22T07:41:08;0.30;;;0.30;;
9643;SDS011;4860;50.900;4.720;2023-11-22T07:43:35;0.40;;;0.40;;
9643;SDS011;4860;50.900;4.720;2023-11-22T07:46:04;0.40;;;0.40;;
9643;SDS011;4860;50.900;4.720;2023-11-22T07:48:33;0.30;;;0.30;;
9643;SDS011;4860;50.900;4.720;2023-11-22T07:51:02;0.33;;;0.33;;
9643;SDS011;4860;50.900;4.720;2023-11-22T07:53:33;0.30;;;0.30;;
9643;SDS011;4860;50.900;4.720;2023-11-22T07:56:00;0.40;;;0.40;;
9643;SDS011;4860;50.900;4.720;2023-11-22T07:58:32;0.40;;;0.40;;
9643;SDS011;4860;50.900;4.720;2023-11-22T08:00:58;0.30;;;0.30;;
9643;SDS011;4860;50.900;4.720;2023-11-22T08:03:28;0.25;;;0.25;;
9643;SDS011;4860;50.900;4.720;2023-11-22T08:05:54;0.30;;;0.30;;
9643;SDS011;4860;50.900;4.720;2023-11-22T08:08:21;0.30;;;0.30;;
9643;SDS011;4860;50.900;4.720;2023-11-22T08:10:48;0.30;;;0.30;;
9643;SDS011;4860;50.900;4.720;2023-11-22T08:13:16;0.30;;;0.30;;
9643;SDS011;4860;50.900;4.720;2023-11-22T08:15:44;0.30;;;0.30;;
9643;SDS011;4860;50.900;4.720;2023-11-22T08:18:12;0.30;;;0.30;;
9643;SDS011;4860;50.900;4.720;2023-11-22T08:20:38;0.30;;;0.30;;
9643;SDS011;4860;50.900;4.720;2023-11-22T08:23:04;0.38;;;0.38;;
9643;SDS011;4860;50.900;4.720;2023-11-22T08:25:31;0.30;;;0.30;;
9643;SDS011;4860;50.900;4.720;2023-11-22T08:27:58;0.22;;;0.22;;
9643;SDS011;4860;50.900;4.720;2023-11-22T08:30:26;0.30;;;0.30;;
9643;SDS011;4860;50.900;4.720;2023-11-22T08:32:52;0.30;;;0.30;;
9643;SDS011;4860;50.900;4.720;2023-11-22T08:35:19;0.20;;;0.20;;
9643;SDS011;4860;50.900;4.720;2023-11-22T08:37:49;0.30;;;0.30;;
9643;SDS011;4860;50.900;4.720;2023-11-22T08:40:15;0.30;;;0.30;;
9643;SDS011;4860;50.900;4.720;2023-11-22T08:42:48;0.40;;;0.40;;
9643;SDS011;4860;50.900;4.720;2023-11-22T08:45:16;0.30;;;0.30;;
9643;SDS011;4860;50.900;4.720;2023-11-22T08:47:42;0.30;;;0.30;;
9643;SDS011;4860;50.900;4.720;2023-11-22T08:50:09;0.30;;;0.30;;
9643;SDS011;4860;50.900;4.720;2023-11-22T08:52:38;0.30;;;0.30;;
9643;SDS011;4860;50.900;4.720;2023-11-22T08:55:08;0.30;;;0.30;;
9643;SDS011;4860;50.900;4.720;2023-11-22T08:57:37;0.30;;;0.30;;
9643;SDS011;4860;50.900;4.720;2023-11-22T09:00:04;0.30;;;0.30;;
9643;SDS011;4860;50.900;4.720;2023-11-22T09:02:34;0.20;;;0.20;;
9643;SDS011;4860;50.900;4.720;2023-11-22T09:05:01;0.20;;;0.20;;
9643;SDS011;4860;50.900;4.720;2023-11-22T09:07:31;0.20;;;0.20;;
9643;SDS011;4860;50.900;4.720;2023-11-22T09:09:58;0.30;;;0.30;;
9643;SDS011;4860;50.900;4.720;2023-11-22T09:12:24;0.30;;;0.30;;
9643;SDS011;4860;50.900;4.720;2023-11-22T09:14:52;0.20;;;0.20;;
9643;SDS011;4860;50.900;4.720;2023-11-22T09:17:18;0.28;;;0.28;;
9643;SDS011;4860;50.900;4.720;2023-11-22T09:19:45;0.22;;;0.22;;
9643;SDS011;4860;50.900;4.720;2023-11-22T09:22:16;0.20;;;0.20;;
9643;SDS011;4860;50.900;4.720;2023-11-22T09:24:43;0.22;;;0.22;;
9643;SDS011;4860;50.900;4.720;2023-11-22T09:27:10;0.20;;;0.20;;
9643;SDS011;4860;50.900;4.720;2023-11-22T09:29:40;0.30;;;0.30;;
9643;SDS011;4860;50.900;4.720;2023-11-22T09:32:06;0.30;;;0.30;;
9643;SDS011;4860;50.900;4.720;2023-11-22T09:34:32;0.20;;;0.20;;
9643;SDS011;4860;50.900;4.720;2023-11-22T09:37:00;0.20;;;0.20;;
9643;SDS011;4860;50.900;4.720;2023-11-22T09:39:26;0.30;;;0.30;;
9643;SDS011;4860;50.900;4.720;2023-11-22T09:41:52;0.25;;;0.25;;
9643;SDS011;4860;50.900;4.720;2023-11-22T09:44:19;0.30;;;0.30;;
9643;SDS011;4860;50.900;4.720;2023-11-22T09:46:47;0.15;;;0.15;;
9643;SDS011;4860;50.900;4.720;2023-11-22T09:49:15;0.22;;;0.22;;
9643;SDS011;4860;50.900;4.720;2023-11-22T09:51:43;0.20;;;0.20;;
9643;SDS011;4860;50.900;4.720;2023-11-22T09:54:09;0.20;;;0.20;;
9643;SDS011;4860;50.900;4.720;2023-11-22T09:56:39;0.20;;;0.20;;
9643;SDS011;4860;50.900;4.720;2023-11-22T09:59:06;0.28;;;0.28;;
9643;SDS011;4860;50.900;4.720;2023-11-22T10:01:33;0.20;;;0.20;;
9643;SDS011;4860;50.900;4.720;2023-11-22T10:04:02;0.20;;;0.20;;
9643;SDS011;4860;50.900;4.720;2023-11-22T10:06:31;0.22;;;0.22;;
9643;SDS011;4860;50.900;4.720;2023-11-22T10:09:00;0.20;;;0.20;;
9643;SDS011;4860;50.900;4.720;2023-11-22T10:11:26;0.20;;;0.20;;
9643;SDS011;4860;50.900;4.720;2023-11-22T10:13:54;0.30;;;0.30;;
9643;SDS011;4860;50.900;4.720;2023-11-22T10:16:22;0.30;;;0.30;;
9643;SDS011;4860;50.900;4.720;2023-11-22T10:18:48;0.30;;;0.30;;
9643;SDS011;4860;50.900;4.720;2023-11-22T10:21:26;0.30;;;0.30;;
9643;SDS011;4860;50.900;4.720;2023-11-22T10:23:54;0.30;;;0.30;;
9643;SDS011;4860;50.900;4.720;2023-11-22T10:26:24;0.20;;;0.20;;
9643;SDS011;4860;50.900;4.720;2023-11-22T10:28:52;0.30;;;0.30;;
9643;SDS011;4860;50.900;4.720;2023-11-22T10:31:19;0.20;;;0.20;;
9643;SDS011;4860;50.900;4.720;2023-11-22T10:33:47;0.20;;;0.20;;
9643;SDS011;4860;50.900;4.720;2023-11-22T10:36:13;0.20;;;0.20;;
9643;SDS011;4860;50.900;4.720;2023-11-22T10:38:40;0.20;;;0.20;;
9643;SDS011;4860;50.900;4.720;2023-11-22T10:41:07;0.20;;;0.20;;
9643;SDS011;4860;50.900;4.720;2023-11-22T10:43:37;0.30;;;0.30;;
9643;SDS011;4860;50.900;4.720;2023-11-22T10:46:04;0.20;;;0.20;;
9643;SDS011;4860;50.900;4.720;2023-11-22T10:48:31;0.20;;;0.20;;
9643;SDS011;4860;50.900;4.720;2023-11-22T10:51:01;0.15;;;0.15;;
9643;SDS011;4860;50.900;4.720;2023-11-22T10:53:31;0.20;;;0.20;;
9643;SDS011;4860;50.900;4.720;2023-11-22T10:56:08;0.30;;;0.30;;
9643;SDS011;4860;50.900;4.720;2023-11-22T10:58:40;0.20;;;0.20;;
9643;SDS011;4860;50.900;4.720;2023-11-22T11:01:24;0.20;;;0.20;;
9643;SDS011;4860;50.900;4.720;2023-11-22T11:03:55;0.20;;;0.20;;
9643;SDS011;4860;50.900;4.720;2023-11-22T11:06:26;0.28;;;0.28;;
9643;SDS011;4860;50.900;4.720;2023-11-22T11:08:56;0.20;;;0.20;;
9643;SDS011;4860;50.900;4.720;2023-11-22T11:11:25;0.20;;;0.20;;
9643;SDS011;4860;50.900;4.720;2023-11-22T11:13:51;0.10;;;0.10;;
9643;SDS011;4860;50.900;4.720;2023-11-22T11:16:18;0.30;;;0.30;;
9643;SDS011;4860;50.900;4.720;2023-11-22T11:18:44;0.20;;;0.20;;
9643;SDS011;4860;50.900;4.720;2023-11-22T11:21:10;0.20;;;0.20;;
9643;SDS011;4860;50.900;4.720;2023-11-22T11:23:38;0.22;;;0.22;;
9643;SDS011;4860;50.900;4.720;2023-11-22T11:26:14;0.20;;;0.20;;
9643;SDS011;4860;50.900;4.720;2023-11-22T11:28:42;0.20;;;0.20;;
9643;SDS011;4860;50.900;4.720;2023-11-22T11:31:09;0.20;;;0.20;;
9643;SDS011;4860;50.900;4.720;2023-11-22T11:33:53;0.30;;;0.30;;
9643;SDS011;4860;50.900;4.720;2023-11-22T11:36:38;0.30;;;0.30;;
9643;SDS011;4860;50.900;4.720;2023-11-22T11:39:06;0.20;;;0.20;;
9643;SDS011;4860;50.900;4.720;2023-11-22T11:41:40;0.20;;;0.20;;
9643;SDS011;4860;50.900;4.720;2023-11-22T11:44:07;0.30;;;0.30;;
9643;SDS011;4860;50.900;4.720;2023-11-22T11:46:34;0.30;;;0.30;;
9643;SDS011;4860;50.900;4.720;2023-11-22T11:49:03;0.22;;;0.22;;
9643;SDS011;4860;50.900;4.720;2023-11-22T11:51:33;0.30;;;0.30;;
9643;SDS011;4860;50.900;4.720;2023-11-22T11:53:59;0.10;;;0.10;;
9643;SDS011;4860;50.900;4.720;2023-11-22T11:56:25;0.20;;;0.20;;
9643;SDS011;4860;50.900;4.720;2023-11-22T11:58:51;0.20;;;0.20;;
9643;SDS011;4860;50.900;4.720;2023-11-22T12:01:18;0.22;;;0.22;;
9643;SDS011;4860;50.900;4.720;2023-11-22T12:03:48;0.30;;;0.30;;
9643;SDS011;4860;50.900;4.720;2023-11-22T12:06:15;0.30;;;0.30;;
9643;SDS011;4860;50.900;4.720;2023-11-22T12:08:41;0.25;;;0.25;;
9643;SDS011;4860;50.900;4.720;2023-11-22T12:11:07;0.20;;;0.20;;
9643;SDS011;4860;50.900;4.720;2023-11-22T12:13:35;0.28;;;0.28;;
9643;SDS011;4860;50.900;4.720;2023-11-22T12:16:08;0.22;;;0.22;;
9643;SDS011;4860;50.900;4.720;2023-11-22T12:18:49;0.20;;;0.20;;
9643;SDS011;4860;50.900;4.720;2023-11-22T12:21:16;0.20;;;0.20;;
9643;SDS011;4860;50.900;4.720;2023-11-22T12:23:43;0.20;;;0.20;;
9643;SDS011;4860;50.900;4.720;2023-11-22T12:26:14;0.20;;;0.20;;
9643;SDS011;4860;50.900;4.720;2023-11-22T12:28:41;0.20;;;0.20;;
9643;SDS011;4860;50.900;4.720;2023-11-22T12:31:08;0.20;;;0.20;;
9643;SDS011;4860;50.900;4.720;2023-11-22T12:33:35;0.20;;;0.20;;
9643;SDS011;4860;50.900;4.720;2023-11-22T12:36:02;0.20;;;0.20;;
9643;SDS011;4860;50.900;4.720;2023-11-22T12:38:29;0.20;;;0.20;;
9643;SDS011;4860;50.900;4.720;2023-11-22T12:40:58;0.30;;;0.30;;
9643;SDS011;4860;50.900;4.720;2023-11-22T12:43:25;0.20;;;0.20;;
9643;SDS011;4860;50.900;4.720;2023-11-22T12:45:58;0.20;;;0.20;;
9643;SDS011;4860;50.900;4.720;2023-11-22T12:48:24;0.20;;;0.20;;
9643;SDS011;4860;50.900;4.720;2023-11-22T12:50:51;0.20;;;0.20;;
9643;SDS011;4860;50.900;4.720;2023-11-22T12:53:18;0.10;;;0.10;;
9643;SDS011;4860;50.900;4.720;2023-11-22T12:55:49;0.20;;;0.20;;
9643;SDS011;4860;50.900;4.720;2023-11-22T12:58:15;0.20;;;0.20;;
9643;SDS011;4860;50.900;4.720;2023-11-22T13:00:43;0.30;;;0.30;;
9643;SDS011;4860;50.900;4.720;2023-11-22T13:03:09;0.30;;;0.30;;
9643;SDS011;4860;50.900;4.720;2023-11-22T13:05:39;0.30;;;0.30;;
9643;SDS011;4860;50.900;4.720;2023-11-22T13:08:08;0.28;;;0.28;;
9643;SDS011;4860;50.900;4.720;2023-11-22T13:10:37;0.20;;;0.20;;
9643;SDS011;4860;50.900;4.720;2023-11-22T13:13:04;0.20;;;0.20;;
9643;SDS011;4860;50.900;4.720;2023-11-22T13:15:33;0.28;;;0.28;;
9643;SDS011;4860;50.900;4.720;2023-11-22T13:18:00;0.20;;;0.20;;
9643;SDS011;4860;50.900;4.720;2023-11-22T13:20:26;0.20;;;0.20;;
9643;SDS011;4860;50.900;4.720;2023-11-22T13:22:53;0.20;;;0.20;;
9643;SDS011;4860;50.900;4.720;2023-11-22T13:25:20;0.30;;;0.30;;
9643;SDS011;4860;50.900;4.720;2023-11-22T13:27:46;0.20;;;0.20;;
9643;SDS011;4860;50.900;4.720;2023-11-22T13:30:15;0.17;;;0.17;;
9643;SDS011;4860;50.900;4.720;2023-11-22T13:32:54;0.28;;;0.28;;
9643;SDS011;4860;50.900;4.720;2023-11-22T13:35:24;0.20;;;0.20;;
9643;SDS011;4860;50.900;4.720;2023-11-22T13:37:52;0.17;;;0.17;;
9643;SDS011;4860;50.900;4.720;2023-11-22T13:40:19;0.17;;;0.17;;
9643;SDS011;4860;50.900;4.720;2023-11-22T13:42:51;0.30;;;0.30;;
9643;SDS011;4860;50.900;4.720;2023-11-22T13:45:18;0.20;;;0.20;;
9643;SDS011;4860;50.900;4.720;2023-11-22T13:47:44;0.10;;;0.10;;
9643;SDS011;4860;50.900;4.720;2023-11-22T13:50:12;0.20;;;0.20;;
9643;SDS011;4860;50.900;4.720;2023-11-22T13:52:41;0.20;;;0.20;;
9643;SDS011;4860;50.900;4.720;2023-11-22T13:55:07;0.20;;;0.20;;
9643;SDS011;4860;50.900;4.720;2023-11-22T13:57:36;0.20;;;0.20;;
9643;SDS011;4860;50.900;4.720;2023-11-22T14:00:03;0.28;;;0.28;;
9643;SDS011;4860;50.900;4.720;2023-11-22T14:02:34;0.15;;;0.15;;
9643;SDS011;4860;50.900;4.720;2023-11-22T14:05:01;0.20;;;0.20;;
9643;SDS011;4860;50.900;4.720;2023-11-22T14:07:33;0.20;;;0.20;;
9643;SDS011;4860;50.900;4.720;2023-11-22T14:09:59;0.25;;;0.25;;
9643;SDS011;4860;50.900;4.720;2023-11-22T14:12:25;0.22;;;0.22;;
9643;SDS011;4860;50.900;4.720;2023-11-22T14:14:51;0.15;;;0.15;;
9643;SDS011;4860;50.900;4.720;2023-11-22T14:17:18;0.10;;;0.10;;
9643;SDS011;4860;50.900;4.720;2023-11-22T14:19:48;0.20;;;0.20;;
9643;SDS011;4860;50.900;4.720;2023-11-22T14:22:17;0.20;;;0.20;;
9643;SDS011;4860;50.900;4.720;2023-11-22T14:24:43;0.20;;;0.20;;
9643;SDS011;4860;50.900;4.720;2023-11-22T14:27:14;0.17;;;0.17;;
9643;SDS011;4860;50.900;4.720;2023-11-22T14:29:41;0.20;;;0.20;;
9643;SDS011;4860;50.900;4.720;2023-11-22T14:32:08;0.22;;;0.22;;
9643;SDS011;4860;50.900;4.720;2023-11-22T14:34:34;0.20;;;0.20;;
9643;SDS011;4860;50.900;4.720;2023-11-22T14:37:00;0.20;;;0.20;;
9643;SDS011;4860;50.900;4.720;2023-11-22T14:39:26;0.13;;;0.13;;
9643;SDS011;4860;50.900;4.720;2023-11-22T14:41:54;0.15;;;0.15;;
9643;SDS011;4860;50.900;4.720;2023-11-22T14:44:21;0.20;;;0.20;;
9643;SDS011;4860;50.900;4.720;2023-11-22T14:46:47;0.20;;;0.20;;
9643;SDS011;4860;50.900;4.720;2023-11-22T14:49:15;0.30;;;0.30;;
9643;SDS011;4860;50.900;4.720;2023-11-22T14:51:41;0.20;;;0.20;;
9643;SDS011;4860;50.900;4.720;2023-11-22T14:54:07;0.20;;;0.20;;
9643;SDS011;4860;50.900;4.720;2023-11-22T14:56:33;0.20;;;0.20;;
9643;SDS011;4860;50.900;4.720;2023-11-22T14:58:59;0.20;;;0.20;;
9643;SDS011;4860;50.900;4.720;2023-11-22T15:01:26;0.20;;;0.20;;
9643;SDS011;4860;50.900;4.720;2023-11-22T15:03:52;0.20;;;0.20;;
9643;SDS011;4860;50.900;4.720;2023-11-22T15:06:22;0.20;;;0.20;;
9643;SDS011;4860;50.900;4.720;2023-11-22T15:08:48;0.20;;;0.20;;
9643;SDS011;4860;50.900;4.720;2023-11-22T15:11:16;0.20;;;0.20;;
9643;SDS011;4860;50.900;4.720;2023-11-22T15:13:43;0.20;;;0.20;;
9643;SDS011;4860;50.900;4.720;2023-11-22T15:16:09;0.20;;;0.20;;
9643;SDS011;4860;50.900;4.720;2023-11-22T15:18:40;0.20;;;0.20;;